sensor_id;sensor_type;location;lat;lon;timestamp;pressure;altitude;pressure_sealevel;temperature;humidity
23281;BME280;11809;56.390;-3.266;2023-09-18T00:00:47;99916.03;;;16.87;67.80
23281;BME280;11809;56.390;-3.266;2023-09-18T00:03:21;99901.19;;;16.84;67.84
23281;BME280;11809;56.390;-3.266;2023-09-18T00:05:52;99894.91;;;16.85;67.73
23281;BME280;11809;56.390;-3.266;2023-09-18T00:08:19;99887.06;;;16.84;67.77
23281;BME280;11809;56.390;-3.266;2023-09-18T00:10:52;99881.78;;;16.84;67.92
23281;BME280;11809;56.390;-3.266;2023-09-18T00:13:20;99880.78;;;16.85;67.85
23281;BME280;11809;56.390;-3.266;2023-09-18T00:15:48;99876.47;;;16.84;67.79
23281;BME280;11809;56.390;-3.266;2023-09-18T00:18:16;99873.06;;;16.82;67.89
23281;BME280;11809;56.390;-3.266;2023-09-18T00:20:44;99872.97;;;16.83;67.79
23281;BME280;11809;56.390;-3.266;2023-09-18T00:23:15;99864.16;;;16.83;67.85
23281;BME280;11809;56.390;-3.266;2023-09-18T00:25:42;99844.72;;;16.82;67.95
23281;BME280;11809;56.390;-3.266;2023-09-18T00:28:09;99841.22;;;16.82;67.87
23281;BME280;11809;56.390;-3.266;2023-09-18T00:30:38;99831.59;;;16.81;67.81
23281;BME280;11809;56.390;-3.266;2023-09-18T00:33:09;99811.22;;;16.81;67.99
23281;BME280;11809;56.390;-3.266;2023-09-18T00:35:36;99803.34;;;16.80;67.90
23281;BME280;11809;56.390;-3.266;2023-09-18T00:38:03;99798.03;;;16.80;67.86
23281;BME280;11809;56.390;-3.266;2023-09-18T00:40:30;99795.38;;;16.80;67.91
23281;BME280;11809;56.390;-3.266;2023-09-18T00:42:57;99790.94;;;16.80;67.86
23281;BME280;11809;56.390;-3.266;2023-09-18T00:45:24;99790.09;;;16.80;67.79
23281;BME280;11809;56.390;-3.266;2023-09-18T00:47:52;99778.50;;;16.81;67.89
23281;BME280;11809;56.390;-3.266;2023-09-18T00:50:19;99775.63;;;16.84;67.84
23281;BME280;11809;56.390;-3.266;2023-09-18T00:52:46;99773.69;;;16.86;67.83
23281;BME280;11809;56.390;-3.266;2023-09-18T00:55:13;99770.31;;;16.84;67.67
23281;BME280;11809;56.390;-3.266;2023-09-18T00:57:42;99759.94;;;16.81;67.76
23281;BME280;11809;56.390;-3.266;2023-09-18T01:00:11;99757.38;;;16.79;67.92
23281;BME280;11809;56.390;-3.266;2023-09-18T01:02:42;99745.22;;;16.77;67.88
23281;BME280;11809;56.390;-3.266;2023-09-18T01:05:10;99741.59;;;16.78;67.98
23281;BME280;11809;56.390;-3.266;2023-09-18T01:07:37;99745.22;;;16.77;68.00
23281;BME280;11809;56.390;-3.266;2023-09-18T01:10:05;99753.16;;;16.77;67.84
23281;BME280;11809;56.390;-3.266;2023-09-18T01:13:04;99742.56;;;16.77;67.82
23281;BME280;11809;56.390;-3.266;2023-09-18T01:15:37;99736.44;;;16.76;68.07
23281;BME280;11809;56.390;-3.266;2023-09-18T01:18:09;99743.41;;;16.77;67.90
23281;BME280;11809;56.390;-3.266;2023-09-18T01:20:36;99734.88;;;16.74;68.23
23281;BME280;11809;56.390;-3.266;2023-09-18T01:23:03;99721.59;;;16.74;68.01
23281;BME280;11809;56.390;-3.266;2023-09-18T01:25:31;99713.66;;;16.74;67.98
23281;BME280;11809;56.390;-3.266;2023-09-18T01:28:00;99701.19;;;16.74;67.98
23281;BME280;11809;56.390;-3.266;2023-09-18T01:30:27;99695.88;;;16.74;67.93
23281;BME280;11809;56.390;-3.266;2023-09-18T01:32:55;99688.06;;;16.73;67.90
23281;BME280;11809;56.390;-3.266;2023-09-18T01:35:25;99686.38;;;16.72;67.84
23281;BME280;11809;56.390;-3.266;2023-09-18T01:37:57;99688.06;;;16.73;67.98
23281;BME280;11809;56.390;-3.266;2023-09-18T01:40:26;99682.75;;;16.73;67.99
23281;BME280;11809;56.390;-3.266;2023-09-18T01:42:53;99672.16;;;16.73;68.06
23281;BME280;11809;56.390;-3.266;2023-09-18T01:45:20;99660.81;;;16.71;67.92
23281;BME280;11809;56.390;-3.266;2023-09-18T01:47:47;99656.34;;;16.71;67.97
23281;BME280;11809;56.390;-3.266;2023-09-18T01:50:14;99657.31;;;16.70;68.05
23281;BME280;11809;56.390;-3.266;2023-09-18T01:52:41;99647.56;;;16.71;67.96
23281;BME280;11809;56.390;-3.266;2023-09-18T01:55:09;99637.66;;;16.73;68.05
23281;BME280;11809;56.390;-3.266;2023-09-18T01:57:36;99629.81;;;16.71;67.99
23281;BME280;11809;56.390;-3.266;2023-09-18T02:00:03;99626.34;;;16.71;68.23
23281;BME280;11809;56.390;-3.266;2023-09-18T02:02:35;99609.44;;;16.72;68.09
23281;BME280;11809;56.390;-3.266;2023-09-18T02:05:23;99603.28;;;16.71;68.12
23281;BME280;11809;56.390;-3.266;2023-09-18T02:07:51;99605.13;;;16.71;68.08
23281;BME280;11809;56.390;-3.266;2023-09-18T02:10:19;99597.16;;;16.71;68.07
23281;BME280;11809;56.390;-3.266;2023-09-18T02:12:46;99591.00;;;16.70;68.19
23281;BME280;11809;56.390;-3.266;2023-09-18T02:15:13;99584.84;;;16.70;67.93
23281;BME280;11809;56.390;-3.266;2023-09-18T02:17:40;99568.06;;;16.69;68.04
23281;BME280;11809;56.390;-3.266;2023-09-18T02:20:07;99568.94;;;16.70;68.05
23281;BME280;11809;56.390;-3.266;2023-09-18T02:22:38;99549.66;;;16.68;68.02
23281;BME280;11809;56.390;-3.266;2023-09-18T02:25:07;99546.16;;;16.67;68.07
23281;BME280;11809;56.390;-3.266;2023-09-18T02:27:34;99536.38;;;16.68;68.11
23281;BME280;11809;56.390;-3.266;2023-09-18T02:30:01;99525.78;;;16.68;67.97
23281;BME280;11809;56.390;-3.266;2023-09-18T02:32:28;99525.78;;;16.68;68.15
23281;BME280;11809;56.390;-3.266;2023-09-18T02:34:55;99515.16;;;16.68;68.13
23281;BME280;11809;56.390;-3.266;2023-09-18T02:37:22;99509.84;;;16.68;68.15
23281;BME280;11809;56.390;-3.266;2023-09-18T02:39:50;99509.00;;;16.67;67.93
23281;BME280;11809;56.390;-3.266;2023-09-18T02:42:17;99507.31;;;16.66;68.21
23281;BME280;11809;56.390;-3.266;2023-09-18T02:44:44;99493.22;;;16.66;68.09
23281;BME280;11809;56.390;-3.266;2023-09-18T02:47:11;99488.75;;;16.66;68.11
23281;BME280;11809;56.390;-3.266;2023-09-18T02:49:38;99487.78;;;16.67;68.04
23281;BME280;11809;56.390;-3.266;2023-09-18T02:52:05;99479.13;;;16.65;68.07
23281;BME280;11809;56.390;-3.266;2023-09-18T02:54:32;99472.00;;;16.66;68.17
23281;BME280;11809;56.390;-3.266;2023-09-18T02:56:59;99460.53;;;16.65;68.19
23281;BME280;11809;56.390;-3.266;2023-09-18T02:59:26;99451.75;;;16.65;68.09
23281;BME280;11809;56.390;-3.266;2023-09-18T03:01:53;99452.59;;;16.65;68.01
23281;BME280;11809;56.390;-3.266;2023-09-18T03:04:20;99442.09;;;16.64;68.18
23281;BME280;11809;56.390;-3.266;2023-09-18T03:06:47;99440.63;;;16.71;68.18
23281;BME280;11809;56.390;-3.266;2023-09-18T03:09:14;99429.16;;;16.70;68.01
23281;BME280;11809;56.390;-3.266;2023-09-18T03:11:43;99423.28;;;16.67;67.99
23281;BME280;11809;56.390;-3.266;2023-09-18T03:14:10;99412.66;;;16.67;67.93
23281;BME280;11809;56.390;-3.266;2023-09-18T03:16:37;99405.69;;;16.66;68.09
23281;BME280;11809;56.390;-3.266;2023-09-18T03:19:04;99403.03;;;16.66;68.11
23281;BME280;11809;56.390;-3.266;2023-09-18T03:21:32;99397.84;;;16.64;68.13
23281;BME280;11809;56.390;-3.266;2023-09-18T03:24:02;99390.72;;;16.65;68.18
23281;BME280;11809;56.390;-3.266;2023-09-18T03:26:29;99381.09;;;16.64;68.09
23281;BME280;11809;56.390;-3.266;2023-09-18T03:28:56;99374.94;;;16.63;68.14
23281;BME280;11809;56.390;-3.266;2023-09-18T03:31:23;99373.00;;;16.65;68.16
23281;BME280;11809;56.390;-3.266;2023-09-18T03:33:50;99363.34;;;16.64;68.16
23281;BME280;11809;56.390;-3.266;2023-09-18T03:36:21;99351.06;;;16.63;68.22
23281;BME280;11809;56.390;-3.266;2023-09-18T03:38:49;99344.78;;;16.64;68.15
23281;BME280;11809;56.390;-3.266;2023-09-18T03:41:16;99339.50;;;16.64;68.31
23281;BME280;11809;56.390;-3.266;2023-09-18T03:43:43;99336.00;;;16.64;68.18
23281;BME280;11809;56.390;-3.266;2023-09-18T03:46:10;99333.34;;;16.64;68.19
23281;BME280;11809;56.390;-3.266;2023-09-18T03:48:37;99325.38;;;16.64;68.29
23281;BME280;11809;56.390;-3.266;2023-09-18T03:51:05;99313.91;;;16.63;68.23
23281;BME280;11809;56.390;-3.266;2023-09-18T03:53:35;99299.13;;;16.61;68.24
23281;BME280;11809;56.390;-3.266;2023-09-18T03:56:03;99294.66;;;16.61;68.33
23281;BME280;11809;56.390;-3.266;2023-09-18T03:58:30;99299.84;;;16.63;68.25
23281;BME280;11809;56.390;-3.266;2023-09-18T04:01:00;99292.84;;;16.62;68.35
23281;BME280;11809;56.390;-3.266;2023-09-18T04:03:27;99285.84;;;16.61;68.26
23281;BME280;11809;56.390;-3.266;2023-09-18T04:05:54;99277.78;;;16.62;68.39
23281;BME280;11809;56.390;-3.266;2023-09-18T04:08:21;99279.59;;;16.62;68.38
23281;BME280;11809;56.390;-3.266;2023-09-18T04:10:48;99261.03;;;16.62;68.39
23281;BME280;11809;56.390;-3.266;2023-09-18T04:13:15;99259.22;;;16.62;68.47
23281;BME280;11809;56.390;-3.266;2023-09-18T04:15:42;99243.41;;;16.61;68.30
23281;BME280;11809;56.390;-3.266;2023-09-18T04:18:09;99240.75;;;16.61;68.34
23281;BME280;11809;56.390;-3.266;2023-09-18T04:20:36;99229.44;;;16.59;68.33
23281;BME280;11809;56.390;-3.266;2023-09-18T04:23:18;99222.91;;;16.63;68.43
23281;BME280;11809;56.390;-3.266;2023-09-18T04:25:46;99207.97;;;16.62;68.22
23281;BME280;11809;56.390;-3.266;2023-09-18T04:28:15;99206.75;;;16.66;68.42
23281;BME280;11809;56.390;-3.266;2023-09-18T04:30:42;99195.66;;;16.61;68.63
23281;BME280;11809;56.390;-3.266;2023-09-18T04:33:09;99187.06;;;16.68;68.50
23281;BME280;11809;56.390;-3.266;2023-09-18T04:35:36;99175.34;;;16.71;68.33
23281;BME280;11809;56.390;-3.266;2023-09-18T04:38:07;99156.88;;;16.69;68.33
23281;BME280;11809;56.390;-3.266;2023-09-18T04:40:35;99156.03;;;16.69;68.42
23281;BME280;11809;56.390;-3.266;2023-09-18T04:43:06;99144.63;;;16.68;68.56
23281;BME280;11809;56.390;-3.266;2023-09-18T04:45:33;99139.16;;;16.70;68.78
23281;BME280;11809;56.390;-3.266;2023-09-18T04:48:00;99143.34;;;16.72;68.98
23281;BME280;11809;56.390;-3.266;2023-09-18T04:50:27;99132.63;;;16.74;68.92
23281;BME280;11809;56.390;-3.266;2023-09-18T04:52:54;99129.66;;;16.77;68.85
23281;BME280;11809;56.390;-3.266;2023-09-18T04:55:22;99121.72;;;16.77;69.02
23281;BME280;11809;56.390;-3.266;2023-09-18T04:57:49;99123.69;;;16.75;69.04
23281;BME280;11809;56.390;-3.266;2023-09-18T05:00:16;99121.03;;;16.75;69.18
23281;BME280;11809;56.390;-3.266;2023-09-18T05:02:44;99110.41;;;16.75;69.15
23281;BME280;11809;56.390;-3.266;2023-09-18T05:05:11;99102.03;;;16.79;69.84
23281;BME280;11809;56.390;-3.266;2023-09-18T05:07:40;99093.41;;;16.87;69.92
23281;BME280;11809;56.390;-3.266;2023-09-18T05:10:08;99092.13;;;16.91;69.69
23281;BME280;11809;56.390;-3.266;2023-09-18T05:12:35;99088.25;;;16.95;69.84
23281;BME280;11809;56.390;-3.266;2023-09-18T05:15:02;99083.63;;;16.97;69.26
23281;BME280;11809;56.390;-3.266;2023-09-18T05:17:47;99068.81;;;16.94;69.70
23281;BME280;11809;56.390;-3.266;2023-09-18T05:20:19;99066.69;;;16.98;69.71
23281;BME280;11809;56.390;-3.266;2023-09-18T05:22:46;99061.00;;;17.03;70.06
23281;BME280;11809;56.390;-3.266;2023-09-18T05:25:14;99058.88;;;17.06;69.80
23281;BME280;11809;56.390;-3.266;2023-09-18T05:27:43;99044.63;;;17.07;69.99
23281;BME280;11809;56.390;-3.266;2023-09-18T05:30:17;99042.13;;;17.06;70.09
23281;BME280;11809;56.390;-3.266;2023-09-18T05:32:44;99034.03;;;17.07;69.79
23281;BME280;11809;56.390;-3.266;2023-09-18T05:35:12;99017.81;;;17.10;69.57
23281;BME280;11809;56.390;-3.266;2023-09-18T05:37:41;99006.19;;;17.11;69.46
23281;BME280;11809;56.390;-3.266;2023-09-18T05:40:10;99001.88;;;17.10;69.43
23281;BME280;11809;56.390;-3.266;2023-09-18T05:42:38;98992.25;;;17.09;69.24
23281;BME280;11809;56.390;-3.266;2023-09-18T05:45:06;99001.72;;;17.12;69.47
23281;BME280;11809;56.390;-3.266;2023-09-18T05:47:33;98980.66;;;17.10;69.45
23281;BME280;11809;56.390;-3.266;2023-09-18T05:50:02;98975.19;;;17.12;69.28
23281;BME280;11809;56.390;-3.266;2023-09-18T05:52:30;98976.03;;;17.12;69.39
23281;BME280;11809;56.390;-3.266;2023-09-18T05:54:57;98964.72;;;17.10;69.41
23281;BME280;11809;56.390;-3.266;2023-09-18T05:57:26;98955.47;;;17.14;69.12
23281;BME280;11809;56.390;-3.266;2023-09-18T05:59:56;98954.91;;;17.20;69.27
23281;BME280;11809;56.390;-3.266;2023-09-18T06:02:23;98949.47;;;17.22;69.32
23281;BME280;11809;56.390;-3.266;2023-09-18T06:04:54;98938.31;;;17.18;69.47
23281;BME280;11809;56.390;-3.266;2023-09-18T06:07:24;98927.81;;;17.17;69.67
23281;BME280;11809;56.390;-3.266;2023-09-18T06:09:52;98929.50;;;17.18;69.26
23281;BME280;11809;56.390;-3.266;2023-09-18T06:12:19;98914.53;;;17.17;69.28
23281;BME280;11809;56.390;-3.266;2023-09-18T06:14:48;98923.34;;;17.17;69.10
23281;BME280;11809;56.390;-3.266;2023-09-18T06:17:16;98910.22;;;17.16;69.04
23281;BME280;11809;56.390;-3.266;2023-09-18T06:19:44;98909.09;;;17.18;69.48
23281;BME280;11809;56.390;-3.266;2023-09-18T06:22:13;98901.81;;;17.20;69.85
23281;BME280;11809;56.390;-3.266;2023-09-18T06:24:40;98899.03;;;17.22;69.75
23281;BME280;11809;56.390;-3.266;2023-09-18T06:27:08;98892.88;;;17.21;69.87
23281;BME280;11809;56.390;-3.266;2023-09-18T06:29:35;98882.94;;;17.23;69.73
23281;BME280;11809;56.390;-3.266;2023-09-18T06:32:05;98883.63;;;17.25;69.76
23281;BME280;11809;56.390;-3.266;2023-09-18T06:34:33;98874.69;;;17.26;69.91
23281;BME280;11809;56.390;-3.266;2023-09-18T06:37:01;98868.84;;;17.23;69.72
23281;BME280;11809;56.390;-3.266;2023-09-18T06:39:28;98874.44;;;17.20;69.96
23281;BME280;11809;56.390;-3.266;2023-09-18T06:41:55;98868.28;;;17.19;70.52
23281;BME280;11809;56.390;-3.266;2023-09-18T06:44:22;98866.63;;;17.18;70.44
23281;BME280;11809;56.390;-3.266;2023-09-18T06:46:50;98861.59;;;17.15;70.49
23281;BME280;11809;56.390;-3.266;2023-09-18T06:49:17;98852.97;;;17.13;70.40
23281;BME280;11809;56.390;-3.266;2023-09-18T06:51:46;98849.59;;;17.11;70.46
23281;BME280;11809;56.390;-3.266;2023-09-18T06:54:13;98839.97;;;17.10;70.37
23281;BME280;11809;56.390;-3.266;2023-09-18T06:56:40;98836.47;;;17.10;70.41
23281;BME280;11809;56.390;-3.266;2023-09-18T06:59:08;98839.28;;;17.08;70.31
23281;BME280;11809;56.390;-3.266;2023-09-18T07:01:35;98829.50;;;17.09;70.32
23281;BME280;11809;56.390;-3.266;2023-09-18T07:04:03;98822.53;;;17.08;70.49
23281;BME280;11809;56.390;-3.266;2023-09-18T07:06:32;98815.41;;;17.08;70.33
23281;BME280;11809;56.390;-3.266;2023-09-18T07:08:59;98823.50;;;17.07;70.13
23281;BME280;11809;56.390;-3.266;2023-09-18T07:11:26;98812.88;;;17.07;70.37
23281;BME280;11809;56.390;-3.266;2023-09-18T07:13:53;98809.38;;;17.06;70.38
23281;BME280;11809;56.390;-3.266;2023-09-18T07:16:20;98800.75;;;17.04;70.58
23281;BME280;11809;56.390;-3.266;2023-09-18T07:18:47;98801.88;;;17.02;70.80
23281;BME280;11809;56.390;-3.266;2023-09-18T07:21:15;98799.50;;;16.98;70.77
23281;BME280;11809;56.390;-3.266;2023-09-18T07:23:42;98799.38;;;17.00;70.58
23281;BME280;11809;56.390;-3.266;2023-09-18T07:26:10;98781.78;;;16.99;70.46
23281;BME280;11809;56.390;-3.266;2023-09-18T07:28:37;98780.94;;;16.98;70.35
23281;BME280;11809;56.390;-3.266;2023-09-18T07:31:08;98779.28;;;16.98;70.37
23281;BME280;11809;56.390;-3.266;2023-09-18T07:33:39;98777.59;;;16.96;70.14
23281;BME280;11809;56.390;-3.266;2023-09-18T07:36:07;98777.16;;;17.01;70.38
23281;BME280;11809;56.390;-3.266;2023-09-18T07:38:34;98780.66;;;17.02;70.31
23281;BME280;11809;56.390;-3.266;2023-09-18T07:41:01;98776.19;;;17.02;70.13
23281;BME280;11809;56.390;-3.266;2023-09-18T07:43:28;98775.50;;;17.00;70.09
23281;BME280;11809;56.390;-3.266;2023-09-18T07:45:55;98773.81;;;16.99;70.00
23281;BME280;11809;56.390;-3.266;2023-09-18T07:48:23;98764.50;;;16.95;70.21
23281;BME280;11809;56.390;-3.266;2023-09-18T07:50:50;98770.78;;;16.94;70.08
23281;BME280;11809;56.390;-3.266;2023-09-18T07:53:18;98768.28;;;16.92;70.29
23281;BME280;11809;56.390;-3.266;2023-09-18T07:55:48;98764.06;;;16.90;70.29
23281;BME280;11809;56.390;-3.266;2023-09-18T07:58:22;98765.31;;;16.95;70.68
23281;BME280;11809;56.390;-3.266;2023-09-18T08:00:49;98762.53;;;16.97;70.49
23281;BME280;11809;56.390;-3.266;2023-09-18T08:03:20;98760.56;;;16.99;70.60
23281;BME280;11809;56.390;-3.266;2023-09-18T08:05:51;98763.38;;;16.98;70.44
23281;BME280;11809;56.390;-3.266;2023-09-18T08:08:20;98769.19;;;17.01;70.36
23281;BME280;11809;56.390;-3.266;2023-09-18T08:10:47;98760.56;;;16.99;70.27
23281;BME280;11809;56.390;-3.266;2023-09-18T08:13:15;98759.88;;;16.97;70.34
23281;BME280;11809;56.390;-3.266;2023-09-18T08:15:43;98759.19;;;16.95;70.27
23281;BME280;11809;56.390;-3.266;2023-09-18T08:18:11;98757.22;;;16.97;70.23
23281;BME280;11809;56.390;-3.266;2023-09-18T08:20:44;98759.19;;;16.95;70.25
23281;BME280;11809;56.390;-3.266;2023-09-18T08:23:11;98755.81;;;16.93;70.20
23281;BME280;11809;56.390;-3.266;2023-09-18T08:25:39;98759.19;;;16.95;70.04
23281;BME280;11809;56.390;-3.266;2023-09-18T08:28:10;98753.34;;;16.91;70.21
23281;BME280;11809;56.390;-3.266;2023-09-18T08:30:37;98755.81;;;16.93;70.15
23281;BME280;11809;56.390;-3.266;2023-09-18T08:33:08;98762.13;;;16.92;70.29
23281;BME280;11809;56.390;-3.266;2023-09-18T08:35:36;98744.69;;;16.89;70.04
23281;BME280;11809;56.390;-3.266;2023-09-18T08:38:03;98754.16;;;16.92;70.09
23281;BME280;11809;56.390;-3.266;2023-09-18T08:40:33;98753.47;;;16.90;70.10
23281;BME280;11809;56.390;-3.266;2023-09-18T08:43:03;98748.31;;;16.88;70.28
23281;BME280;11809;56.390;-3.266;2023-09-18T08:45:40;98753.63;;;16.88;70.29
23281;BME280;11809;56.390;-3.266;2023-09-18T08:48:10;98751.81;;;16.89;70.30
23281;BME280;11809;56.390;-3.266;2023-09-18T08:50:40;98743.84;;;16.89;70.27
23281;BME280;11809;56.390;-3.266;2023-09-18T08:53:07;98746.34;;;16.90;70.26
23281;BME280;11809;56.390;-3.266;2023-09-18T08:55:34;98749.84;;;16.91;70.17
23281;BME280;11809;56.390;-3.266;2023-09-18T08:58:02;98742.16;;;16.88;69.98
23281;BME280;11809;56.390;-3.266;2023-09-18T09:00:30;98745.81;;;16.87;70.17
23281;BME280;11809;56.390;-3.266;2023-09-18T09:02:57;98756.44;;;16.87;70.35
23281;BME280;11809;56.390;-3.266;2023-09-18T09:05:24;98751.81;;;16.89;70.39
23281;BME280;11809;56.390;-3.266;2023-09-18T09:07:52;98742.84;;;16.90;70.07
23281;BME280;11809;56.390;-3.266;2023-09-18T09:10:19;98739.38;;;16.89;70.16
23281;BME280;11809;56.390;-3.266;2023-09-18T09:15:16;98737.88;;;16.87;70.19
23281;BME280;11809;56.390;-3.266;2023-09-18T09:17:44;98742.16;;;16.88;70.19
23281;BME280;11809;56.390;-3.266;2023-09-18T09:20:13;98741.66;;;16.84;70.27
23281;BME280;11809;56.390;-3.266;2023-09-18T09:22:41;98744.13;;;16.86;70.29
23281;BME280;11809;56.390;-3.266;2023-09-18T09:25:21;98741.66;;;16.84;70.15
23281;BME280;11809;56.390;-3.266;2023-09-18T09:27:49;98749.44;;;16.86;70.07
23281;BME280;11809;56.390;-3.266;2023-09-18T09:30:23;98743.28;;;16.85;70.14
23281;BME280;11809;56.390;-3.266;2023-09-18T09:32:54;98751.41;;;16.84;70.08
23281;BME280;11809;56.390;-3.266;2023-09-18T09:35:29;98744.44;;;16.83;69.91
23281;BME280;11809;56.390;-3.266;2023-09-18T09:38:01;98750.56;;;16.83;70.09
23281;BME280;11809;56.390;-3.266;2023-09-18T09:40:29;98746.13;;;16.84;70.04
23281;BME280;11809;56.390;-3.266;2023-09-18T09:42:58;98745.09;;;16.85;70.00
23281;BME280;11809;56.390;-3.266;2023-09-18T09:45:29;98745.09;;;16.85;69.79
23281;BME280;11809;56.390;-3.266;2023-09-18T09:47:58;98741.94;;;16.81;69.85
23281;BME280;11809;56.390;-3.266;2023-09-18T09:50:27;98747.25;;;16.81;69.83
23281;BME280;11809;56.390;-3.266;2023-09-18T09:52:55;98754.34;;;16.81;69.96
23281;BME280;11809;56.390;-3.266;2023-09-18T09:57:58;98757.31;;;16.78;69.92
23281;BME280;11809;56.390;-3.266;2023-09-18T10:00:32;98762.16;;;16.82;69.97
23281;BME280;11809;56.390;-3.266;2023-09-18T10:03:09;98759.78;;;16.79;69.75
23281;BME280;11809;56.390;-3.266;2023-09-18T10:05:43;98751.03;;;16.79;69.70
23281;BME280;11809;56.390;-3.266;2023-09-18T10:08:19;98757.97;;;16.80;69.78
23281;BME280;11809;56.390;-3.266;2023-09-18T10:10:49;98759.66;;;16.81;69.77
23281;BME280;11809;56.390;-3.266;2023-09-18T10:13:32;98756.34;;;16.79;69.66
23281;BME280;11809;56.390;-3.266;2023-09-18T10:16:05;98757.31;;;16.78;69.84
23281;BME280;11809;56.390;-3.266;2023-09-18T10:24:39;98769.59;;;16.79;69.72
23281;BME280;11809;56.390;-3.266;2023-09-18T10:27:09;98774.06;;;16.78;69.58
23281;BME280;11809;56.390;-3.266;2023-09-18T10:29:41;98767.91;;;16.78;69.67
23281;BME280;11809;56.390;-3.266;2023-09-18T10:32:09;98768.06;;;16.76;69.72
23281;BME280;11809;56.390;-3.266;2023-09-18T10:34:36;98768.88;;;16.77;69.75
23281;BME280;11809;56.390;-3.266;2023-09-18T10:37:04;98763.75;;;16.75;69.86
23281;BME280;11809;56.390;-3.266;2023-09-18T10:39:36;98768.88;;;16.77;69.69
23281;BME280;11809;56.390;-3.266;2023-09-18T10:42:07;98770.56;;;16.78;69.79
23281;BME280;11809;56.390;-3.266;2023-09-18T10:44:35;98773.22;;;16.78;69.73
23281;BME280;11809;56.390;-3.266;2023-09-18T10:47:04;98779.38;;;16.78;69.61
23281;BME280;11809;56.390;-3.266;2023-09-18T10:49:34;98782.69;;;16.80;69.49
23281;BME280;11809;56.390;-3.266;2023-09-18T10:52:02;98772.25;;;16.79;69.67
23281;BME280;11809;56.390;-3.266;2023-09-18T10:54:31;98774.91;;;16.79;69.74
23281;BME280;11809;56.390;-3.266;2023-09-18T10:56:58;98777.41;;;16.80;69.64
23281;BME280;11809;56.390;-3.266;2023-09-18T10:59:27;98773.22;;;16.78;69.74
23281;BME280;11809;56.390;-3.266;2023-09-18T11:01:55;98771.41;;;16.78;69.72
23281;BME280;11809;56.390;-3.266;2023-09-18T11:04:23;98777.56;;;16.79;69.76
23281;BME280;11809;56.390;-3.266;2023-09-18T11:09:25;98772.09;;;16.80;69.79
23281;BME280;11809;56.390;-3.266;2023-09-18T11:17:36;98762.03;;;16.84;69.68
23281;BME280;11809;56.390;-3.266;2023-09-18T11:22:56;98761.75;;;16.87;69.59
23281;BME280;11809;56.390;-3.266;2023-09-18T11:30:50;98767.03;;;16.87;69.69
23281;BME280;11809;56.390;-3.266;2023-09-18T11:33:36;98767.03;;;16.87;69.73
23281;BME280;11809;56.390;-3.266;2023-09-18T11:36:11;98759.09;;;16.87;69.56
23281;BME280;11809;56.390;-3.266;2023-09-18T11:38:57;98750.97;;;16.88;69.59
23281;BME280;11809;56.390;-3.266;2023-09-18T11:41:33;98751.94;;;16.87;69.59
23281;BME280;11809;56.390;-3.266;2023-09-18T11:46:48;98765.06;;;16.89;69.74
23281;BME280;11809;56.390;-3.266;2023-09-18T11:49:22;98756.13;;;16.90;69.66
23281;BME280;11809;56.390;-3.266;2023-09-18T11:51:50;98752.50;;;16.91;69.71
23281;BME280;11809;56.390;-3.266;2023-09-18T11:54:18;98758.34;;;16.94;69.71
23281;BME280;11809;56.390;-3.266;2023-09-18T11:56:46;98764.50;;;16.95;69.57
23281;BME280;11809;56.390;-3.266;2023-09-18T11:59:13;98768.13;;;16.94;69.51
23281;BME280;11809;56.390;-3.266;2023-09-18T12:01:41;98768.13;;;16.94;69.68
23281;BME280;11809;56.390;-3.266;2023-09-18T12:04:08;98766.31;;;16.94;69.61
23281;BME280;11809;56.390;-3.266;2023-09-18T12:06:36;98767.28;;;16.93;69.58
23281;BME280;11809;56.390;-3.266;2023-09-18T12:09:06;98762.81;;;16.94;69.38
23281;BME280;11809;56.390;-3.266;2023-09-18T12:11:34;98774.09;;;16.96;69.55
23281;BME280;11809;56.390;-3.266;2023-09-18T12:14:02;98773.25;;;16.95;69.36
23281;BME280;11809;56.390;-3.266;2023-09-18T12:16:37;98774.28;;;16.94;69.57
23281;BME280;11809;56.390;-3.266;2023-09-18T12:19:06;98780.41;;;16.95;69.53
23281;BME280;11809;56.390;-3.266;2023-09-18T12:21:42;98781.38;;;16.94;69.47
23281;BME280;11809;56.390;-3.266;2023-09-18T12:24:23;98777.91;;;16.93;69.35
23281;BME280;11809;56.390;-3.266;2023-09-18T12:26:52;98783.06;;;16.95;69.44
23281;BME280;11809;56.390;-3.266;2023-09-18T12:29:22;98787.38;;;16.96;69.43
23281;BME280;11809;56.390;-3.266;2023-09-18T12:31:50;98789.06;;;16.97;69.42
23281;BME280;11809;56.390;-3.266;2023-09-18T12:34:21;98786.41;;;16.97;69.33
23281;BME280;11809;56.390;-3.266;2023-09-18T12:36:49;98787.25;;;16.98;69.31
23281;BME280;11809;56.390;-3.266;2023-09-18T12:39:17;98792.09;;;17.02;69.37
23281;BME280;11809;56.390;-3.266;2023-09-18T12:41:48;98788.47;;;17.03;69.11
23281;BME280;11809;56.390;-3.266;2023-09-18T12:44:15;98790.13;;;17.04;69.32
23281;BME280;11809;56.390;-3.266;2023-09-18T12:46:44;98796.28;;;17.05;69.27
23281;BME280;11809;56.390;-3.266;2023-09-18T12:49:22;98790.13;;;17.04;69.37
23281;BME280;11809;56.390;-3.266;2023-09-18T12:51:59;98801.44;;;17.06;69.28
23281;BME280;11809;56.390;-3.266;2023-09-18T12:54:44;98793.47;;;17.06;69.38
23281;BME280;11809;56.390;-3.266;2023-09-18T12:57:21;98794.31;;;17.07;69.30
23281;BME280;11809;56.390;-3.266;2023-09-18T12:59:48;98791.66;;;17.07;69.26
23281;BME280;11809;56.390;-3.266;2023-09-18T13:02:20;98797.81;;;17.07;69.16
23281;BME280;11809;56.390;-3.266;2023-09-18T13:04:56;98796.84;;;17.08;69.21
23281;BME280;11809;56.390;-3.266;2023-09-18T13:07:24;98793.19;;;17.09;69.14
23281;BME280;11809;56.390;-3.266;2023-09-18T13:10:06;98792.34;;;17.09;69.16
23281;BME280;11809;56.390;-3.266;2023-09-18T13:12:47;98800.16;;;17.10;69.19
23281;BME280;11809;56.390;-3.266;2023-09-18T13:15:28;98793.84;;;17.11;68.96
23281;BME280;11809;56.390;-3.266;2023-09-18T13:17:58;98802.81;;;17.10;69.13
23281;BME280;11809;56.390;-3.266;2023-09-18T13:20:27;98809.94;;;17.10;69.07
23281;BME280;11809;56.390;-3.266;2023-09-18T13:22:58;98810.78;;;17.10;69.06
23281;BME280;11809;56.390;-3.266;2023-09-18T13:25:32;98814.41;;;17.09;69.02
23281;BME280;11809;56.390;-3.266;2023-09-18T13:28:11;98823.38;;;17.08;69.02
23281;BME280;11809;56.390;-3.266;2023-09-18T13:30:58;98820.72;;;17.08;69.00